Time;durP1;ratioP1;P1;durP2;ratioP2;P2;SDS_P1;SDS_P2;PMS_P1;PMS_P2;Temp;Humidity;BMP_temperature;BMP_pressure;BME280_temperature;BME280_humidity;BME280_pressure;Samples;Min_cycle;Max_cycle;Signal;HPM_P1;HPM_P2
2023/05/06 00:02:16;;;;;;;;;;;;;;;17.42;61.26;101342.19;5056404;28;19917;-87
2023/05/06 00:04:42;;;;;;;;;;;;;;;17.42;61.16;101342.19;5073908;28;19920;-87
2023/05/06 00:07:07;;;;;;;;;;;;;;;17.40;61.43;101348.22;5078384;28;20404;-87
2023/05/06 00:09:33;;;;;;;;;;;;;;;17.45;61.13;101349.31;5087795;28;19931;-86
2023/05/06 00:11:58;;;;;;;;;;;;;;;17.45;61.31;101344.91;5102054;28;20384;-87
2023/05/06 00:14:24;;;;;;;;;;;;;;;17.42;61.44;101350.09;5075481;28;19931;-87
2023/05/06 00:16:50;;;;;;;;;;;;;;;17.42;61.10;101346.53;5088584;28;19946;-87
2023/05/06 00:19:15;;;;;;;;;;;;;;;17.38;61.13;101345.56;5091520;28;20069;-87
2023/05/06 00:21:40;;;;;;;;;;;;;;;17.40;61.28;101351.78;5105185;28;20304;-87
2023/05/06 00:24:06;;;;;;;;;;;;;;;17.41;61.10;101344.75;5078125;28;20387;-87
2023/05/06 00:26:31;;;;;;;;;;;;;;;17.43;60.98;101349.22;5087827;28;20446;-87
2023/05/06 00:28:57;;;;;;;;;;;;;;;17.41;61.14;101345.66;5076278;28;19955;-87
2023/05/06 00:31:22;;;;;;;;;;;;;;;17.42;61.15;101339.53;5072791;28;20054;-87
2023/05/06 00:33:47;;;;;;;;;;;;;;;17.43;61.21;101341.31;5072881;28;20413;-87
2023/05/06 00:36:13;;;;;;;;;;;;;;;17.41;61.23;101335.09;5084731;28;20374;-87
2023/05/06 00:38:38;;;;;;;;;;;;;;;17.42;61.23;101342.19;5075556;28;20413;-87
2023/05/06 00:41:04;;;;;;;;;;;;;;;17.42;61.20;101334.25;5072564;28;19925;-87
2023/05/06 00:43:29;;;;;;;;;;;;;;;17.43;61.08;101325.47;5072707;28;20416;-88
2023/05/06 00:45:55;;;;;;;;;;;;;;;17.43;61.03;101329.88;5088142;28;19916;-87
2023/05/06 00:48:20;;;;;;;;;;;;;;;17.42;61.20;101328.06;5072582;28;19922;-86
2023/05/06 00:50:46;;;;;;;;;;;;;;;17.41;61.21;101316.59;5057554;28;19923;-84
2023/05/06 00:53:11;;;;;;;;;;;;;;;17.41;61.22;101318.34;5091437;28;20435;-85
2023/05/06 00:55:36;;;;;;;;;;;;;;;17.36;61.00;101312.91;5091907;28;20400;-86
2023/05/06 00:58:02;;;;;;;;;;;;;;;17.37;61.16;101309.41;5063640;28;20053;-86
2023/05/06 01:00:27;;;;;;;;;;;;;;;17.34;61.24;101309.31;5101335;28;19956;-87
2023/05/06 01:02:53;;;;;;;;;;;;;;;17.35;61.34;101307.56;5088441;28;19978;-86
2023/05/06 01:05:20;;;;;;;;;;;;;;;17.34;61.08;101298.75;5073875;28;19920;-85
2023/05/06 01:07:45;;;;;;;;;;;;;;;17.36;61.18;101296.19;5092450;28;19924;-87
2023/05/06 01:10:22;;;;;;;;;;;;;;;17.33;61.19;101296.94;5078066;28;20279;-87
2023/05/06 01:12:57;;;;;;;;;;;;;;;17.38;60.97;101292.75;5082813;28;20406;-87
2023/05/06 01:15:25;;;;;;;;;;;;;;;17.35;60.90;101295.25;5073716;28;20382;-87
2023/05/06 01:17:50;;;;;;;;;;;;;;;17.36;60.91;101291.78;5070358;28;19920;-87
2023/05/06 01:20:16;;;;;;;;;;;;;;;17.37;60.77;101287.41;5087654;28;19986;-87
2023/05/06 01:22:42;;;;;;;;;;;;;;;17.35;61.05;101283.81;5087776;28;20382;-87
2023/05/06 01:25:16;;;;;;;;;;;;;;;17.34;60.87;101289.94;5053863;28;19962;-88
2023/05/06 01:27:41;;;;;;;;;;;;;;;17.35;60.93;101281.16;5070295;28;19924;-88
2023/05/06 01:30:07;;;;;;;;;;;;;;;17.32;60.79;101289.00;5089764;28;19920;-87
2023/05/06 01:32:44;;;;;;;;;;;;;;;17.33;60.86;101288.13;5057810;28;19985;-87
2023/05/06 01:35:10;;;;;;;;;;;;;;;17.31;60.85;101285.44;5072212;28;19939;-88
2023/05/06 01:37:41;;;;;;;;;;;;;;;17.30;61.01;101291.56;5076421;28;19924;-88
2023/05/06 01:40:07;;;;;;;;;;;;;;;17.33;60.80;101288.13;5087366;28;19916;-88
2023/05/06 01:42:33;;;;;;;;;;;;;;;17.30;60.74;101288.94;5070620;28;19927;-87
2023/05/06 01:44:58;;;;;;;;;;;;;;;17.30;60.73;101286.28;5095933;28;19927;-87
2023/05/06 01:47:24;;;;;;;;;;;;;;;17.28;60.96;101288.88;5099556;28;19928;-86
2023/05/06 01:49:50;;;;;;;;;;;;;;;17.25;61.02;101282.59;5071967;28;19974;-87
2023/05/06 01:52:15;;;;;;;;;;;;;;;17.28;60.45;101280.97;5099017;28;19973;-87
2023/05/06 01:54:40;;;;;;;;;;;;;;;17.31;60.34;101288.06;5064114;28;19921;-87
2023/05/06 01:57:06;;;;;;;;;;;;;;;17.30;60.52;101281.91;5088962;28;19939;-87
2023/05/06 01:59:31;;;;;;;;;;;;;;;17.26;60.47;101290.56;5076481;28;20480;-87
2023/05/06 02:01:57;;;;;;;;;;;;;;;17.28;60.38;101290.63;5088408;28;20441;-87
2023/05/06 02:04:22;;;;;;;;;;;;;;;17.26;60.39;101290.56;5056654;28;20547;-87
2023/05/06 02:06:48;;;;;;;;;;;;;;;17.25;60.58;101291.44;5078316;28;19996;-87
2023/05/06 02:09:13;;;;;;;;;;;;;;;17.27;60.61;101294.09;5053644;28;20286;-87
2023/05/06 02:11:38;;;;;;;;;;;;;;;17.26;60.45;101298.47;5071959;28;19916;-87
2023/05/06 02:14:04;;;;;;;;;;;;;;;17.28;60.51;101299.44;5084684;28;19916;-87
2023/05/06 02:16:29;;;;;;;;;;;;;;;17.25;60.64;101298.41;5071497;28;19961;-87
2023/05/06 02:18:55;;;;;;;;;;;;;;;17.23;60.64;101295.75;5089590;28;20386;-87
2023/05/06 02:21:20;;;;;;;;;;;;;;;17.25;60.71;101301.06;5053724;28;19970;-87
2023/05/06 02:23:46;;;;;;;;;;;;;;;17.25;60.62;101298.41;5070876;28;19970;-87
2023/05/06 02:26:11;;;;;;;;;;;;;;;17.26;60.67;101294.94;5090645;28;20313;-88
2023/05/06 02:28:36;;;;;;;;;;;;;;;17.25;60.58;101298.41;5068473;28;20378;-86
2023/05/06 02:31:02;;;;;;;;;;;;;;;17.27;60.56;101302.00;5095142;28;19916;-87
2023/05/06 02:33:27;;;;;;;;;;;;;;;17.26;60.63;101301.13;5054067;28;20390;-87
2023/05/06 02:35:53;;;;;;;;;;;;;;;17.23;60.73;101300.09;5057611;28;19939;-87
2023/05/06 02:38:18;;;;;;;;;;;;;;;17.25;60.73;101296.69;5075829;28;20012;-87
2023/05/06 02:40:44;;;;;;;;;;;;;;;17.23;60.68;101298.38;5075952;28;20389;-87
2023/05/06 02:43:09;;;;;;;;;;;;;;;17.21;60.57;101293.91;5075591;28;19924;-87
2023/05/06 02:45:35;;;;;;;;;;;;;;;17.24;60.60;101300.16;5085755;28;20016;-86
2023/05/06 02:48:00;;;;;;;;;;;;;;;17.22;60.35;101293.94;5095217;28;19978;-87
2023/05/06 02:50:25;;;;;;;;;;;;;;;17.22;60.48;101298.31;5090411;28;20380;-87
2023/05/06 02:52:51;;;;;;;;;;;;;;;17.21;60.33;101286.88;5083788;28;20341;-87
2023/05/06 02:55:17;;;;;;;;;;;;;;;17.23;60.50;101294.81;5089882;28;19924;-87
2023/05/06 02:57:43;;;;;;;;;;;;;;;17.22;60.38;101290.41;5098548;28;20466;-86
2023/05/06 03:00:09;;;;;;;;;;;;;;;17.24;60.42;101296.63;5077011;28;19917;-85
2023/05/06 03:02:35;;;;;;;;;;;;;;;17.23;60.30;101297.47;5088944;28;19920;-85
2023/05/06 03:05:03;;;;;;;;;;;;;;;17.24;60.22;101296.63;5089573;28;20523;-86
2023/05/06 03:07:28;;;;;;;;;;;;;;;17.24;60.33;101297.53;5082182;28;20018;-85
2023/05/06 03:09:54;;;;;;;;;;;;;;;17.23;60.58;101292.19;5078647;28;20011;-85
2023/05/06 03:12:20;;;;;;;;;;;;;;;17.24;60.45;101294.00;5085913;28;20344;-87
2023/05/06 03:14:45;;;;;;;;;;;;;;;17.22;60.44;101301.84;5094267;28;19928;-86
2023/05/06 03:17:11;;;;;;;;;;;;;;;17.24;60.49;101296.63;5055875;28;20019;-88
2023/05/06 03:19:36;;;;;;;;;;;;;;;17.24;60.47;101297.53;5093211;28;20450;-87
2023/05/06 03:22:02;;;;;;;;;;;;;;;17.26;60.36;101302.88;5091826;28;20418;-88
2023/05/06 03:24:27;;;;;;;;;;;;;;;17.25;60.31;101308.97;5075470;28;19916;-87
2023/05/06 03:26:53;;;;;;;;;;;;;;;17.24;60.45;101309.84;5092706;28;19970;-88
2023/05/06 03:29:18;;;;;;;;;;;;;;;17.28;60.27;101311.75;5073966;28;19965;-88
2023/05/06 03:31:43;;;;;;;;;;;;;;;17.23;60.44;101314.22;5056594;28;20356;-88
2023/05/06 03:34:09;;;;;;;;;;;;;;;17.23;60.23;101316.88;5059279;28;19936;-89
2023/05/06 03:36:34;;;;;;;;;;;;;;;17.24;60.12;101317.75;5088951;28;20568;-85
2023/05/06 03:39:00;;;;;;;;;;;;;;;17.24;60.34;101323.91;5058948;28;19924;-87
2023/05/06 03:41:25;;;;;;;;;;;;;;;17.24;60.51;101330.94;5090322;28;20408;-87
2023/05/06 03:43:51;;;;;;;;;;;;;;;17.18;60.53;101330.72;5058228;28;20369;-86
2023/05/06 03:46:16;;;;;;;;;;;;;;;17.20;60.53;101326.41;5084859;28;20349;-86
2023/05/06 03:48:42;;;;;;;;;;;;;;;17.20;60.19;101335.22;5056627;28;20026;-86
2023/05/06 03:51:07;;;;;;;;;;;;;;;17.22;60.26;101340.56;5100809;28;19935;-86
2023/05/06 03:53:34;;;;;;;;;;;;;;;17.21;60.33;101355.50;5109321;28;20330;-87
2023/05/06 03:56:00;;;;;;;;;;;;;;;17.23;60.09;101358.16;5097740;28;20029;-86
2023/05/06 03:58:26;;;;;;;;;;;;;;;17.21;60.33;101355.50;5091485;28;20304;-86
2023/05/06 04:00:59;;;;;;;;;;;;;;;17.24;60.21;101349.44;5083438;28;20004;-86
2023/05/06 04:03:25;;;;;;;;;;;;;;;17.20;60.59;101360.72;5090061;28;19924;-85
2023/05/06 04:06:04;;;;;;;;;;;;;;;17.21;60.28;101351.97;5088405;28;20283;-85
2023/05/06 04:08:41;;;;;;;;;;;;;;;17.21;60.42;101359.88;5069115;28;19928;-87
2023/05/06 04:11:07;;;;;;;;;;;;;;;17.21;60.38;101366.06;5074289;28;19923;-86
2023/05/06 04:14:01;;;;;;;;;;;;;;;17.24;60.43;101363.53;5088082;28;20462;-86
2023/05/06 04:16:26;;;;;;;;;;;;;;;17.20;60.55;101366.88;5061879;28;19921;-86
2023/05/06 04:18:52;;;;;;;;;;;;;;;17.15;60.61;101360.56;5082456;28;19920;-90
2023/05/06 04:21:17;;;;;;;;;;;;;;;17.17;60.30;101368.53;5085105;28;19927;-89
2023/05/06 04:23:43;;;;;;;;;;;;;;;17.16;60.67;101367.63;5054926;28;19924;-88
2023/05/06 04:26:08;;;;;;;;;;;;;;;17.20;60.34;101368.63;5074255;28;19926;-88
2023/05/06 04:28:34;;;;;;;;;;;;;;;17.21;60.50;101378.38;5075965;28;20320;-88
2023/05/06 04:31:01;;;;;;;;;;;;;;;17.23;60.48;101377.56;5079396;28;20405;-88
2023/05/06 04:33:27;;;;;;;;;;;;;;;17.23;60.40;101379.28;5081514;28;19920;-88
2023/05/06 04:35:53;;;;;;;;;;;;;;;17.21;60.48;101376.63;5076658;28;19920;-89
2023/05/06 04:38:24;;;;;;;;;;;;;;;17.22;60.62;101380.16;5082991;28;19963;-89
2023/05/06 04:40:50;;;;;;;;;;;;;;;17.25;60.53;101382.88;5075869;28;19921;-87
2023/05/06 04:43:17;;;;;;;;;;;;;;;17.24;60.58;101384.63;5075444;28;20029;-90
2023/05/06 04:45:48;;;;;;;;;;;;;;;17.23;60.64;101385.50;5076986;28;19921;-90
2023/05/06 04:48:15;;;;;;;;;;;;;;;17.21;60.56;101381.00;5097932;28;20333;-90
2023/05/06 04:50:40;;;;;;;;;;;;;;;17.16;61.03;101388.72;5095180;28;20085;-90
2023/05/06 04:53:06;;;;;;;;;;;;;;;17.16;60.84;101383.44;5098051;28;20370;-90
2023/05/06 04:55:33;;;;;;;;;;;;;;;17.21;60.67;101391.56;5077985;28;20414;-88
2023/05/06 04:57:59;;;;;;;;;;;;;;;17.17;60.84;101393.19;5089633;28;20069;-89
2023/05/06 05:00:26;;;;;;;;;;;;;;;17.16;61.05;101385.19;5073537;28;20344;-90
2023/05/06 05:02:51;;;;;;;;;;;;;;;17.15;61.09;101386.06;5077690;28;19927;-91
2023/05/06 05:05:18;;;;;;;;;;;;;;;17.20;60.99;101384.47;5100629;28;19921;-89
2023/05/06 05:07:43;;;;;;;;;;;;;;;17.16;60.84;101386.09;5067279;28;19924;-89
2023/05/06 05:10:09;;;;;;;;;;;;;;;17.09;61.22;101384.06;5082528;28;19970;-89
2023/05/06 05:12:46;;;;;;;;;;;;;;;17.09;60.99;101377.06;5083072;28;19924;-89
2023/05/06 05:15:13;;;;;;;;;;;;;;;17.17;60.92;101384.38;5066028;28;20011;-88
2023/05/06 05:17:39;;;;;;;;;;;;;;;17.12;61.17;101380.66;5062672;28;19916;-87
2023/05/06 05:20:05;;;;;;;;;;;;;;;17.08;61.26;101379.63;5046222;28;19954;-87
2023/05/06 05:22:59;;;;;;;;;;;;;;;17.14;61.25;101378.97;5067129;28;19942;-94
2023/05/06 05:25:24;;;;;;;;;;;;;;;17.14;61.49;101378.97;5093852;28;20023;-88
2023/05/06 05:27:50;;;;;;;;;;;;;;;17.22;61.10;101385.44;5060849;28;19958;-88
2023/05/06 05:30:16;;;;;;;;;;;;;;;17.23;60.85;101377.56;5102232;28;20270;-89
2023/05/06 05:32:43;;;;;;;;;;;;;;;17.03;60.27;101390.00;5065678;28;19938;-88
2023/05/06 05:35:11;;;;;;;;;;;;;;;17.04;59.58;101396.22;5078300;28;19922;-87
2023/05/06 05:37:36;;;;;;;;;;;;;;;17.05;58.96;101398.00;5089815;28;20287;-88
2023/05/06 05:40:03;;;;;;;;;;;;;;;17.12;58.01;101402.66;5095969;28;20437;-87
2023/05/06 05:42:32;;;;;;;;;;;;;;;17.20;57.65;101409.13;5081829;28;19916;-88
2023/05/06 05:44:59;;;;;;;;;;;;;;;17.29;57.44;101411.19;5065379;28;19964;-87
2023/05/06 05:47:24;;;;;;;;;;;;;;;17.29;57.27;101416.47;5051817;28;20460;-89
2023/05/06 05:49:50;;;;;;;;;;;;;;;17.32;57.09;101413.97;5075330;28;19927;-87
2023/05/06 05:52:15;;;;;;;;;;;;;;;17.31;57.14;101420.06;5091693;28;19920;-85
2023/05/06 05:54:41;;;;;;;;;;;;;;;17.37;56.76;101419.41;5091941;28;19943;-85
2023/05/06 05:57:06;;;;;;;;;;;;;;;17.36;56.65;101417.63;5080004;28;20391;-86
2023/05/06 05:59:31;;;;;;;;;;;;;;;17.42;56.60;101417.81;5089624;28;19964;-86
2023/05/06 06:01:57;;;;;;;;;;;;;;;17.49;56.39;101425.16;5082811;28;20317;-87
2023/05/06 06:04:22;;;;;;;;;;;;;;;17.52;55.85;101424.34;5091954;27;20219;-86
2023/05/06 06:06:48;;;;;;;;;;;;;;;17.42;57.61;101431.94;5105872;28;19927;-87
2023/05/06 06:09:15;;;;;;;;;;;;;;;17.33;58.86;101428.06;5055885;28;19935;-86
2023/05/06 06:11:42;;;;;;;;;;;;;;;17.52;59.19;101430.53;5078908;28;20061;-86
2023/05/06 06:14:07;;;;;;;;;;;;;;;17.54;59.77;101426.19;5088312;28;19927;-88
2023/05/06 06:16:32;;;;;;;;;;;;;;;17.64;58.91;101430.06;5094290;28;20137;-86
2023/05/06 06:18:58;;;;;;;;;;;;;;;17.50;57.82;101427.84;5072005;28;20386;-88
2023/05/06 06:21:23;;;;;;;;;;;;;;;17.42;57.61;101424.03;5075478;28;19924;-87
2023/05/06 06:23:49;;;;;;;;;;;;;;;17.41;57.15;101419.56;5097317;28;20333;-87
2023/05/06 06:26:14;;;;;;;;;;;;;;;17.40;57.01;101416.88;5082989;28;20014;-87
2023/05/06 06:28:40;;;;;;;;;;;;;;;17.47;56.76;101424.19;5054367;28;20302;-87
2023/05/06 06:31:06;;;;;;;;;;;;;;;17.50;56.38;101424.28;5080572;28;19960;-85
2023/05/06 06:33:31;;;;;;;;;;;;;;;17.49;56.36;101430.44;5097579;28;20424;-86
2023/05/06 06:35:57;;;;;;;;;;;;;;;17.49;56.19;101423.41;5095240;28;19981;-85
2023/05/06 06:38:22;;;;;;;;;;;;;;;17.48;56.20;101423.31;5095269;28;19963;-87
2023/05/06 06:40:48;;;;;;;;;;;;;;;17.52;55.97;101419.06;5091592;28;19978;-86
2023/05/06 06:43:13;;;;;;;;;;;;;;;17.52;55.85;101425.25;5075484;28;20402;-85
2023/05/06 06:45:38;;;;;;;;;;;;;;;17.58;55.81;101421.94;5091871;28;20525;-86
2023/05/06 06:48:07;;;;;;;;;;;;;;;17.58;55.88;101419.28;5111906;28;19920;-86
2023/05/06 06:50:32;;;;;;;;;;;;;;;17.62;55.35;101418.56;5070989;28;19916;-84
2023/05/06 06:52:58;;;;;;;;;;;;;;;17.58;55.58;101424.56;5089613;28;20397;-84
2023/05/06 06:55:23;;;;;;;;;;;;;;;17.63;55.63;101418.63;5085748;28;20385;-85
2023/05/06 06:57:49;;;;;;;;;;;;;;;17.53;57.55;101421.78;5093196;28;20354;-85
2023/05/06 07:00:14;;;;;;;;;;;;;;;17.62;58.52;101423.84;5076729;28;19932;-86
2023/05/06 07:02:40;;;;;;;;;;;;;;;17.66;59.03;101412.53;5045470;28;20015;-85
2023/05/06 07:05:05;;;;;;;;;;;;;;;17.52;59.77;101424.34;5088442;28;19989;-85
2023/05/06 07:07:33;;;;;;;;;;;;;;;17.67;58.09;101422.25;5059639;28;19920;-87
2023/05/06 07:09:59;;;;;;;;;;;;;;;17.56;57.53;101424.50;5096446;28;19932;-86
2023/05/06 07:12:25;;;;;;;;;;;;;;;17.55;57.17;101424.47;5095121;28;20019;-86
2023/05/06 07:14:51;;;;;;;;;;;;;;;17.56;56.86;101424.50;5100125;28;19916;-87
2023/05/06 07:17:16;;;;;;;;;;;;;;;17.60;56.53;101425.53;5095092;28;19920;-87
2023/05/06 07:19:41;;;;;;;;;;;;;;;17.64;56.36;101425.69;5074883;28;19920;-83
2023/05/06 07:22:07;;;;;;;;;;;;;;;17.68;55.92;101418.78;5067053;28;19920;-87
2023/05/06 07:24:32;;;;;;;;;;;;;;;17.75;55.61;101418.13;5050021;28;20341;-86
2023/05/06 07:26:59;;;;;;;;;;;;;;;17.75;55.56;101418.13;5068665;28;19920;-85
2023/05/06 07:29:25;;;;;;;;;;;;;;;17.72;55.39;101423.31;5084989;28;20020;-87
2023/05/06 07:31:50;;;;;;;;;;;;;;;17.71;55.42;101421.50;5077168;28;20440;-87
2023/05/06 07:34:16;;;;;;;;;;;;;;;17.85;54.87;101424.69;5072909;28;19920;-87
2023/05/06 07:36:45;;;;;;;;;;;;;;;17.82;55.02;101425.47;5087354;28;19924;-89
2023/05/06 07:39:11;;;;;;;;;;;;;;;17.78;54.87;101418.25;5053094;28;20003;-85
2023/05/06 07:41:36;;;;;;;;;;;;;;;17.82;55.00;101421.88;5063260;28;20050;-84
2023/05/06 07:44:02;;;;;;;;;;;;;;;17.76;55.15;101427.88;5083906;28;19920;-84
2023/05/06 07:46:27;;;;;;;;;;;;;;;17.72;56.35;101423.31;5065580;28;19920;-86
2023/05/06 07:48:53;;;;;;;;;;;;;;;17.63;58.70;101434.47;5064460;28;20028;-87
2023/05/06 07:51:18;;;;;;;;;;;;;;;17.75;58.78;101430.47;5102014;28;20378;-88
2023/05/06 07:53:45;;;;;;;;;;;;;;;17.70;59.48;101443.50;5071054;28;19928;-89
2023/05/06 07:56:11;;;;;;;;;;;;;;;17.92;58.49;101441.66;5059003;28;19993;-89
2023/05/06 07:58:36;;;;;;;;;;;;;;;17.82;57.37;101443.03;5045860;28;20022;-88
2023/05/06 08:01:02;;;;;;;;;;;;;;;17.77;56.74;101456.06;5072759;28;20063;-88
2023/05/06 08:03:28;;;;;;;;;;;;;;;17.75;56.59;101447.19;5091362;28;19967;-89
2023/05/06 08:05:54;;;;;;;;;;;;;;;17.83;55.95;101451.03;5070908;28;19931;-88
2023/05/06 08:08:21;;;;;;;;;;;;;;;17.84;55.77;101450.22;5092536;28;19924;-86
2023/05/06 08:10:47;;;;;;;;;;;;;;;17.85;55.63;101449.34;5075313;28;19920;-88
2023/05/06 08:13:12;;;;;;;;;;;;;;;17.94;55.19;101448.78;5075003;28;19927;-88
2023/05/06 08:15:38;;;;;;;;;;;;;;;18.05;54.79;101454.44;5085612;28;19920;-87
2023/05/06 08:18:06;;;;;;;;;;;;;;;17.96;54.85;101455.00;5087631;28;19927;-90
2023/05/06 08:20:33;;;;;;;;;;;;;;;17.98;54.97;101457.72;5074904;28;19916;-87
2023/05/06 08:22:59;;;;;;;;;;;;;;;18.01;54.73;101457.81;5071619;28;19920;-88
2023/05/06 08:25:25;;;;;;;;;;;;;;;18.01;54.70;101463.09;5090499;28;19916;-88
2023/05/06 08:27:50;;;;;;;;;;;;;;;18.04;54.35;101455.28;5070016;28;19920;-87
2023/05/06 08:30:27;;;;;;;;;;;;;;;18.05;54.46;101457.97;5075764;28;19999;-88
2023/05/06 08:32:53;;;;;;;;;;;;;;;18.08;54.54;101455.44;5077286;28;19916;-89
2023/05/06 08:35:19;;;;;;;;;;;;;;;18.10;54.68;101452.88;5056010;28;19940;-89
2023/05/06 08:37:44;;;;;;;;;;;;;;;18.02;56.73;101460.53;5082827;28;20309;-88
2023/05/06 08:40:28;;;;;;;;;;;;;;;18.05;56.21;101451.78;5065960;28;20304;-87
2023/05/06 08:43:22;;;;;;;;;;;;;;;18.08;55.54;101462.47;5095345;28;20389;-87
2023/05/06 08:45:48;;;;;;;;;;;;;;;18.15;54.89;101466.22;5098283;28;19964;-86
2023/05/06 08:52:10;;;;;;;;;;;;;;;18.16;54.51;101470.66;5072681;28;19923;-87
2023/05/06 08:57:58;;;;;;;;;;;;;;;18.25;54.48;101460.41;5051665;28;19967;-87
2023/05/06 09:10:13;;;;;;;;;;;;;;;18.33;53.78;101463.28;5049543;28;19928;-88
2023/05/06 09:12:38;;;;;;;;;;;;;;;18.38;54.05;101457.31;5062516;28;19920;-87
2023/05/06 09:15:04;;;;;;;;;;;;;;;18.40;53.83;101454.75;5085043;28;19920;-88
2023/05/06 09:17:30;;;;;;;;;;;;;;;18.39;53.93;101452.94;5073986;28;19926;-88
2023/05/06 09:19:56;;;;;;;;;;;;;;;18.38;54.71;101448.50;5073210;28;19917;-88
2023/05/06 09:22:29;;;;;;;;;;;;;;;18.33;56.33;101455.38;5072130;28;19916;-88
2023/05/06 09:24:55;;;;;;;;;;;;;;;18.25;55.88;101449.84;5098701;28;19924;-86
2023/05/06 09:27:24;;;;;;;;;;;;;;;18.37;55.07;101437.03;5090036;28;19930;-88
2023/05/06 09:30:00;;;;;;;;;;;;;;;18.38;54.68;101437.91;5072600;28;19916;-88
2023/05/06 09:32:27;;;;;;;;;;;;;;;18.42;54.29;101432.78;5087489;28;19951;-88
2023/05/06 09:34:54;;;;;;;;;;;;;;;18.50;54.12;101436.56;5077476;28;20386;-88
2023/05/06 09:37:19;;;;;;;;;;;;;;;18.49;54.11;101434.75;5088366;28;20039;-88
2023/05/06 09:39:46;;;;;;;;;;;;;;;18.56;53.88;101437.59;5090927;28;19971;-87
2023/05/06 09:42:12;;;;;;;;;;;;;;;18.56;nan;101434.97;5053819;28;20020;-87
2023/05/06 09:44:37;;;;;;;;;;;;;;;18.63;53.62;101435.22;5089543;28;19952;-88
2023/05/06 09:47:03;;;;;;;;;;;;;;;18.67;53.59;101436.22;5055737;28;19943;-87
2023/05/06 09:49:28;;;;;;;;;;;;;;;18.71;53.45;101436.38;5102989;27;20022;-88
2023/05/06 09:51:55;;;;;;;;;;;;;;;18.68;53.32;101438.00;5070899;28;19965;-87
2023/05/06 09:54:20;;;;;;;;;;;;;;;18.66;53.84;101437.06;5054418;28;19920;-87
2023/05/06 09:56:46;;;;;;;;;;;;;;;18.70;53.38;101438.94;5087533;28;19923;-88
2023/05/06 09:59:12;;;;;;;;;;;;;;;18.81;53.37;101436.66;5100500;28;19922;-86
2023/05/06 10:01:37;;;;;;;;;;;;;;;18.78;53.35;101441.84;5081954;28;19917;-87
2023/05/06 10:04:03;;;;;;;;;;;;;;;18.75;53.41;101442.63;5090160;28;19921;-86
2023/05/06 10:06:59;;;;;;;;;;;;;;;18.81;53.34;101440.22;5077748;28;20010;-87
2023/05/06 10:12:55;;;;;;;;;;;;;;;18.81;53.55;101444.59;5085475;28;20010;-86
2023/05/06 10:15:48;;;;;;;;;;;;;;;18.83;53.29;101438.50;5048660;28;19940;-86
2023/05/06 10:18:34;;;;;;;;;;;;;;;18.83;53.47;101442.91;5076249;28;19924;-87
2023/05/06 10:21:26;;;;;;;;;;;;;;;18.97;52.89;101432.75;5068614;28;20349;-87
2023/05/06 10:24:30;;;;;;;;;;;;;;;18.89;53.30;101436.06;5088139;28;19920;-86
2023/05/06 10:30:21;;;;;;;;;;;;;;;18.98;52.92;101426.59;5070847;28;19993;-86
2023/05/06 10:32:50;;;;;;;;;;;;;;;19.00;53.04;101423.13;5063428;28;19923;-86
2023/05/06 10:35:45;;;;;;;;;;;;;;;18.97;53.13;101417.78;5072268;28;19928;-86
2023/05/06 10:44:57;;;;;;;;;;;;;;;19.06;53.07;101418.03;4997142;28;19925;-89
2023/05/06 10:47:22;;;;;;;;;;;;;;;19.13;52.62;101416.47;4989144;28;20441;-88
2023/05/06 10:50:20;;;;;;;;;;;;;;;19.08;53.05;101418.97;4975093;28;20012;-89
2023/05/06 10:52:46;;;;;;;;;;;;;;;19.13;52.75;101424.41;4964261;28;19918;-89
2023/05/06 10:55:25;;;;;;;;;;;;;;;19.12;52.89;101425.28;4990017;28;20004;-90
2023/05/06 10:57:55;;;;;;;;;;;;;;;19.18;52.74;101430.75;5022805;28;19928;-88
2023/05/06 11:00:21;;;;;;;;;;;;;;;19.03;52.80;101402.06;4981681;28;19926;-89
2023/05/06 11:02:53;;;;;;;;;;;;;;;19.18;52.76;101429.84;4994071;28;20437;-88
2023/05/06 11:05:18;;;;;;;;;;;;;;;19.17;52.87;101417.47;4977060;28;20407;-87
2023/05/06 11:07:44;;;;;;;;;;;;;;;19.20;53.17;101418.44;5010072;28;19972;-88
2023/05/06 11:10:10;;;;;;;;;;;;;;;19.31;52.54;101424.06;5006760;28;20400;-89
2023/05/06 11:12:49;;;;;;;;;;;;;;;19.23;52.87;101420.28;5024589;28;19978;-89
2023/05/06 11:15:19;;;;;;;;;;;;;;;19.23;52.78;101423.81;5024734;28;19920;-89
2023/05/06 11:17:45;;;;;;;;;;;;;;;19.27;52.66;101425.72;5074295;28;19920;-89
2023/05/06 11:20:17;;;;;;;;;;;;;;;19.33;52.25;101427.66;5103991;28;19979;-89
2023/05/06 11:22:43;;;;;;;;;;;;;;;19.33;52.24;101427.66;5091262;28;19917;-89
2023/05/06 11:25:08;;;;;;;;;;;;;;;19.26;52.50;101425.66;5090282;28;19917;-90
2023/05/06 11:27:34;;;;;;;;;;;;;;;19.30;53.00;101427.53;5057151;28;19928;-89
2023/05/06 11:29:59;;;;;;;;;;;;;;;19.26;53.42;101415.06;5104505;28;19923;-89
2023/05/06 11:32:25;;;;;;;;;;;;;;;19.30;52.79;101422.25;5073859;28;19916;-88
2023/05/06 11:34:53;;;;;;;;;;;;;;;19.24;53.25;101409.75;5090981;28;20405;-89
2023/05/06 11:37:25;;;;;;;;;;;;;;;19.30;52.85;101403.72;5090517;28;20003;-88
2023/05/06 11:39:51;;;;;;;;;;;;;;;19.27;53.45;101407.16;5089097;28;19916;-87
2023/05/06 11:42:23;;;;;;;;;;;;;;;19.33;53.08;101406.47;5092373;28;19916;-90
2023/05/06 11:44:49;;;;;;;;;;;;;;;19.35;53.31;101411.81;5050794;28;19990;-91
2023/05/06 11:47:15;;;;;;;;;;;;;;;19.45;52.71;101416.47;5104790;27;19985;-88
2023/05/06 11:49:43;;;;;;;;;;;;;;;19.43;52.66;101411.16;5084590;28;20035;-90
2023/05/06 11:52:11;;;;;;;;;;;;;;;19.50;52.46;101420.19;5100559;27;19917;-89
2023/05/06 11:54:40;;;;;;;;;;;;;;;19.51;52.22;101414.94;5057307;28;19928;-90
2023/05/06 11:57:06;;;;;;;;;;;;;;;19.58;51.83;101417.72;5105918;27;19916;-89
2023/05/06 11:59:32;;;;;;;;;;;;;;;19.62;51.49;101414.31;5098456;28;20025;-89
2023/05/06 12:01:58;;;;;;;;;;;;;;;19.55;51.78;101409.69;5102683;28;19916;-90
2023/05/06 12:04:24;;;;;;;;;;;;;;;19.62;51.62;101412.56;5083195;28;19939;-89
2023/05/06 12:06:50;;;;;;;;;;;;;;;19.62;51.53;101412.56;5068095;28;19923;-89
2023/05/06 12:09:16;;;;;;;;;;;;;;;19.63;51.54;101419.66;5103808;28;19942;-90
2023/05/06 12:11:41;;;;;;;;;;;;;;;19.68;51.19;101419.78;5081926;28;19920;-89
2023/05/06 12:14:08;;;;;;;;;;;;;;;19.69;51.25;101421.59;5082268;28;19929;-90
2023/05/06 12:16:34;;;;;;;;;;;;;;;19.68;51.30;101420.69;5058584;28;19920;-89
2023/05/06 12:18:59;;;;;;;;;;;;;;;19.77;51.08;101416.50;5097057;28;20390;-89
2023/05/06 12:21:25;;;;;;;;;;;;;;;19.70;51.71;101426.94;5073071;28;19923;-91
2023/05/06 12:23:52;;;;;;;;;;;;;;;19.71;51.27;101431.41;5080755;28;20019;-90
2023/05/06 12:26:18;;;;;;;;;;;;;;;19.69;51.66;101421.59;5095874;28;20007;-90
2023/05/06 12:28:44;;;;;;;;;;;;;;;19.79;51.33;101428.03;5080557;28;20014;-89
2023/05/06 12:31:36;;;;;;;;;;;;;;;19.69;51.32;101435.72;5060902;28;19991;-90
2023/05/06 12:34:02;;;;;;;;;;;;;;;19.62;51.71;101436.41;5086106;28;20312;-90
2023/05/06 12:36:28;;;;;;;;;;;;;;;19.67;51.63;101424.19;5092364;28;19920;-90
2023/05/06 12:39:00;;;;;;;;;;;;;;;19.72;52.23;101421.69;5089809;28;19948;-89
2023/05/06 12:41:57;;;;;;;;;;;;;;;19.71;51.67;101425.22;5077538;28;19979;-89
2023/05/06 12:44:32;;;;;;;;;;;;;;;19.80;51.48;101424.56;5055128;28;20297;-90
2023/05/06 12:47:06;;;;;;;;;;;;;;;19.75;51.33;101428.81;5089634;28;19923;-91
2023/05/06 12:49:50;;;;;;;;;;;;;;;19.72;51.44;101419.94;5097764;28;20896;-89
2023/05/06 12:52:16;;;;;;;;;;;;;;;19.81;51.25;101418.38;5091448;28;19973;-89
2023/05/06 12:54:42;;;;;;;;;;;;;;;19.79;51.31;101420.09;5090968;28;19920;-89
2023/05/06 12:57:07;;;;;;;;;;;;;;;19.71;52.13;101423.44;5101479;28;20416;-90
2023/05/06 12:59:34;;;;;;;;;;;;;;;19.81;51.26;101414.00;5076529;28;19920;-90
2023/05/06 13:02:00;;;;;;;;;;;;;;;19.84;51.10;101429.09;5092041;28;19982;-90
2023/05/06 13:04:27;;;;;;;;;;;;;;;19.84;51.27;101429.97;5089129;28;19924;-89
2023/05/06 13:06:52;;;;;;;;;;;;;;;19.86;51.11;101428.25;5072541;28;19995;-91
2023/05/06 13:09:18;;;;;;;;;;;;;;;19.89;51.09;101427.44;5072382;28;19959;-91